Austin, Texas
Traffic Map
Current Weather Conditions
Austin, Texas
Few Clouds
Few Clouds
87°
Feels Like: 88°
Wind Chill: 87° Ceiling: Unl
Heat Index: 88° Visibility: 10mi
Dew Point: 64° Wind: 10mph
Humidity: 46% Direction: 170° (S)
Pressure: 29.85in Gusts: 21mph
Raw Report DataKATT 231951Z AUTO 17009G18KT 150V210 10SM FEW050 FEW060 31/18 A2985 RMK AO2 SLP096 T03060178
Traffic Incident Summary
Active as of:
Severity:
Category:
InformationThere was an issue retrieving the traffic information for this location. Please try a different location or try again shortly.
Advertisements
At Last! Intellicast now available for iPhone and Android